Terminal Aerodrome Forecast
Issued by NWS

Home | Current Version | Previous Version | Text Only | Print | Product List | Glossary On
Versions: 1 2 3 4 5 6 7 8 9 10 11 12 13 14 15 16 17 18 19 20 21 22 23 24 25 26 27 28 29 30 31 32 33 34 35 36
000
FTUS46 KPQR 190544
TAFONP
TAF
KONP 190544Z 1906/2006 20012G20KT P6SM -SHRA BKN015 BKN040
     FM190900 19014G22KT P6SM -SHRA OVC009
     FM191500 20015G22KT P6SM -SHRA BKN025 BKN040
     FM192000 19015G21KT P6SM BKN050=

USA.gov is the U.S. government's official web portal to all federal, state and local government web resources and services.